Terminal Aerodrome Forecast
Issued by NWS Omaha/Valley, NE

Home | Current Version | Previous Version | Text Only | Print | Product List | Glossary On
Versions: 1 2 3 4 5 6 7 8 9 10 11 12 13 14 15 16 17 18 19 20 21 22 23 24 25 26 27 28 29 30 31 32 33 34 35 36 37
000
FTUS43 KOAX 191430 AAB
TAFOMA
TAF AMD
KOMA 191430Z 1915/2012 18016G23KT 5SM BR OVC006
      TEMPO 1916/1917 P6SM NSW BKN008
     FM191700 19017G25KT P6SM SCT008
     FM200000 18013KT P6SM SKC
     FM201100 25009KT P6SM BKN250=

USA.gov is the U.S. government's official web portal to all federal, state and local government web resources and services.